King City, Oregon
Current Conditions -  °F | °C
As of 10:53 AM on Thursday 23 Oct 2014 (Local Time) from KHIO Reporting Station
Broken Clouds Broken Clouds  
Wind Chill: 56°   Ceiling: 7000
Heat Index: 56°   Visibility: 10mi
Dew Point: 54°   Wind: 7mph
Humidity: 93%   Direction: 180°S
Pressure: 29.85"   Gusts: NA
Location:  45.4077°N, 122.809°W
Report Text: KHIO 231753Z 18006KT 10SM FEW025 SCT040 BKN070 13/12 A2985 RMK AO2 SLP108 60011 T01330122 10133 20117 51029
Loading
Personal Weather Stations






























Interactive Weather Map
Tropical Storm Tracking
New forecast layout! Learn more

10-Day Weather Forecast

Advertisements
Track Severe Weather on mobile